createdAt,value
2023-02-24T00:01:52.873Z,101473.75
2023-02-24T00:04:21.006Z,101480.69
2023-02-24T00:06:48.499Z,101471.19
2023-02-24T00:09:26.398Z,101465.00
2023-02-24T00:11:59.490Z,101478.31
2023-02-24T00:14:29.566Z,101468.53
2023-02-24T00:16:58.784Z,101455.50
2023-02-24T00:19:29.240Z,101454.38
2023-02-24T00:21:56.207Z,101448.66
2023-02-24T00:24:23.618Z,101443.72
2023-02-24T00:26:55.102Z,101438.50
2023-02-24T00:29:24.271Z,101426.63
2023-02-24T00:32:06.903Z,101417.44
2023-02-24T00:34:36.475Z,101407.97
2023-02-24T00:37:07.017Z,101409.47
2023-02-24T00:39:35.542Z,101403.19
2023-02-24T00:42:05.912Z,101396.94
2023-02-24T00:44:39.146Z,101398.94
2023-02-24T00:47:08.148Z,101394.06
2023-02-24T00:49:42.743Z,101380.22
2023-02-24T00:52:15.078Z,101383.31
2023-02-24T00:54:45.170Z,101373.91
2023-02-24T00:57:13.069Z,101363.13
2023-02-24T00:59:40.347Z,101357.72
2023-02-24T01:02:11.815Z,101349.63
2023-02-24T01:04:41.074Z,101344.78
2023-02-24T01:07:11.008Z,101343.47
2023-02-24T01:09:41.579Z,101335.56
2023-02-24T01:12:19.538Z,101337.28
2023-02-24T01:14:48.545Z,101341.69
2023-02-24T01:17:18.362Z,101332.81
2023-02-24T01:19:49.221Z,101322.03
2023-02-24T01:22:18.621Z,101324.78
2023-02-24T01:24:47.244Z,101322.03
2023-02-24T01:27:17.801Z,101324.50
2023-02-24T01:29:46.427Z,101312.25
2023-02-24T01:32:19.941Z,101294.31
2023-02-24T01:34:52.469Z,101309.03
2023-02-24T01:37:21.224Z,101309.06
2023-02-24T01:39:49.000Z,101302.16
2023-02-24T01:42:22.142Z,101301.47
2023-02-24T01:44:52.924Z,101300.50
2023-02-24T01:47:21.493Z,101293.63
2023-02-24T01:49:52.785Z,101291.44
2023-02-24T01:52:26.728Z,101282.63
2023-02-24T01:55:02.991Z,101283.97
2023-02-24T01:57:33.512Z,101275.50
2023-02-24T02:00:12.476Z,101267.81
2023-02-24T02:02:46.538Z,101260.66
2023-02-24T02:05:17.212Z,101257.34
2023-02-24T02:07:45.675Z,101245.41
2023-02-24T02:10:14.866Z,101251.69
2023-02-24T02:12:44.680Z,101244.91
2023-02-24T02:15:15.518Z,101244.91
2023-02-24T02:18:12.549Z,101229.66
2023-02-24T02:21:02.650Z,101237.16
2023-02-24T02:24:01.170Z,101229.00
2023-02-24T02:27:04.701Z,101231.72
2023-02-24T02:29:41.555Z,101215.38
2023-02-24T02:32:53.295Z,101212.53
2023-02-24T02:35:37.197Z,101212.13
2023-02-24T02:38:15.308Z,101202.63
2023-02-24T02:41:07.336Z,101198.91
2023-02-24T02:44:13.035Z,101193.66
2023-02-24T02:46:48.070Z,101191.66
2023-02-24T02:49:55.714Z,101189.41
2023-02-24T02:52:34.748Z,101183.25
2023-02-24T02:55:10.479Z,101180.03
2023-02-24T02:57:40.292Z,101164.19
2023-02-24T03:00:23.379Z,101166.00
2023-02-24T03:02:58.235Z,101160.44
2023-02-24T03:05:29.876Z,101159.34
2023-02-24T03:07:59.238Z,101156.81
2023-02-24T03:10:29.089Z,101151.03
2023-02-24T03:13:00.552Z,101143.25
2023-02-24T03:15:32.874Z,101149.91
2023-02-24T03:18:12.179Z,101132.81
2023-02-24T03:20:44.379Z,101134.75
2023-02-24T03:23:16.898Z,101129.69
2023-02-24T03:25:54.868Z,101131.66
2023-02-24T03:28:32.373Z,101117.91
2023-02-24T03:31:11.104Z,101122.91
2023-02-24T03:33:45.095Z,101124.25
2023-02-24T03:36:15.045Z,101112.72
2023-02-24T03:38:42.990Z,101114.97
2023-02-24T03:41:13.539Z,101107.78
2023-02-24T03:43:46.849Z,101097.06
2023-02-24T03:46:17.025Z,101097.06
2023-02-24T03:49:02.985Z,101089.66
2023-02-24T03:51:31.769Z,101082.44
2023-02-24T03:54:31.110Z,101075.53
2023-02-24T03:57:54.855Z,101077.50
2023-02-24T04:00:54.165Z,101072.50
2023-02-24T04:03:44.495Z,101058.72
2023-02-24T04:06:58.104Z,101050.84
2023-02-24T04:09:40.670Z,101053.69
2023-02-24T04:12:18.954Z,101046.03
2023-02-24T04:14:51.199Z,101045.22
2023-02-24T04:17:21.150Z,101038.78
2023-02-24T04:19:55.944Z,101030.97
2023-02-24T04:22:26.886Z,101025.34
2023-02-24T04:25:00.509Z,101020.69
2023-02-24T04:27:28.948Z,101008.00
2023-02-24T04:30:05.924Z,101005.09
2023-02-24T04:32:34.013Z,101000.75
2023-02-24T04:35:05.345Z,100992.75
2023-02-24T04:37:38.679Z,100986.34
2023-02-24T04:40:10.893Z,100985.72
2023-02-24T04:42:46.690Z,100964.50
2023-02-24T04:45:19.083Z,100971.06
2023-02-24T04:47:49.547Z,100965.47
2023-02-24T04:50:23.201Z,100960.50
2023-02-24T04:53:02.006Z,100948.44
2023-02-24T04:55:33.364Z,100933.97
2023-02-24T04:58:02.233Z,100930.09
2023-02-24T05:00:36.125Z,100924.16
2023-02-24T05:03:05.508Z,100922.53
2023-02-24T05:05:33.676Z,100911.94
2023-02-24T05:08:04.862Z,100906.50
2023-02-24T05:10:38.217Z,100893.13
2023-02-24T05:13:06.991Z,100895.56
2023-02-24T05:15:33.939Z,100889.63
2023-02-24T05:18:24.389Z,100885.75
2023-02-24T05:21:15.717Z,100875.63
2023-02-24T05:23:47.045Z,100867.75
2023-02-24T05:26:17.819Z,100869.69
2023-02-24T05:28:49.433Z,100864.53
2023-02-24T05:31:20.145Z,100858.75
2023-02-24T05:33:51.284Z,100864.38
2023-02-24T05:36:19.426Z,100854.88
2023-02-24T05:38:56.722Z,100857.13
2023-02-24T05:41:32.632Z,100840.75
2023-02-24T05:44:02.568Z,100831.75
2023-02-24T05:46:32.771Z,100832.09
2023-02-24T05:49:02.502Z,100824.19
2023-02-24T05:51:36.050Z,100811.97
2023-02-24T05:54:08.147Z,100808.59
2023-02-24T05:56:38.783Z,100808.59
2023-02-24T05:59:09.071Z,100797.69
2023-02-24T06:01:37.824Z,100793.84
2023-02-24T06:04:08.100Z,100776.47
2023-02-24T06:06:37.222Z,100779.84
2023-02-24T06:09:11.082Z,100778.38
2023-02-24T06:11:40.742Z,100771.34
2023-02-24T06:14:10.113Z,100762.00
2023-02-24T06:16:40.098Z,100768.44
2023-02-24T06:19:09.513Z,100752.03
2023-02-24T06:21:41.377Z,100757.84
2023-02-24T06:24:15.487Z,100756.53
2023-02-24T06:26:46.002Z,100753.47
2023-02-24T06:29:15.005Z,100737.41
2023-02-24T06:31:45.350Z,100734.66
2023-02-24T06:34:18.546Z,100730.81
2023-02-24T06:36:47.091Z,100725.50
2023-02-24T06:39:14.696Z,100720.84
2023-02-24T06:41:42.796Z,100728.72
2023-02-24T06:44:09.769Z,100722.44
2023-02-24T06:46:37.340Z,100714.59
2023-02-24T06:49:04.416Z,100721.66
2023-02-24T06:51:32.021Z,100715.41
2023-02-24T06:53:59.728Z,100710.75
2023-02-24T06:56:27.897Z,100715.56
2023-02-24T06:58:56.928Z,100706.84
2023-02-24T07:01:28.112Z,100706.84
2023-02-24T07:04:17.643Z,100703.00
2023-02-24T07:06:49.485Z,100693.19
2023-02-24T07:09:18.883Z,100695.28
2023-02-24T07:11:52.031Z,100691.44
2023-02-24T07:14:21.828Z,100673.09
2023-02-24T07:16:54.349Z,100679.84
2023-02-24T07:19:25.037Z,100663.91
2023-02-24T07:22:03.748Z,100662.00
2023-02-24T07:24:36.753Z,100665.53
2023-02-24T07:27:07.832Z,100655.06
2023-02-24T07:29:37.835Z,100654.41
2023-02-24T07:32:08.971Z,100651.38
2023-02-24T07:34:40.388Z,100652.94
2023-02-24T07:37:09.504Z,100651.03
2023-02-24T07:39:39.168Z,100644.75
2023-02-24T07:42:08.365Z,100642.97
2023-02-24T07:44:45.296Z,100646.66
2023-02-24T07:47:12.247Z,100644.38
2023-02-24T07:49:40.954Z,100628.78
2023-02-24T07:52:08.565Z,100626.53
2023-02-24T07:54:35.983Z,100622.00
2023-02-24T07:57:03.267Z,100623.28
2023-02-24T07:59:32.709Z,100614.88
2023-02-24T08:02:00.672Z,100604.88
2023-02-24T08:04:30.430Z,100606.50
2023-02-24T08:07:02.954Z,100603.56
2023-02-24T08:09:46.575Z,100596.97
2023-02-24T08:12:22.243Z,100601.13
2023-02-24T08:14:53.895Z,100596.09
2023-02-24T08:17:23.324Z,100591.25
2023-02-24T08:20:12.235Z,100577.69
2023-02-24T08:22:44.061Z,100573.94
2023-02-24T08:25:18.594Z,100568.13
2023-02-24T08:28:07.441Z,100565.84
2023-02-24T08:30:39.850Z,100565.97
2023-02-24T08:33:10.287Z,100563.03
2023-02-24T08:35:44.809Z,100549.47
2023-02-24T08:38:16.691Z,100552.69
2023-02-24T08:40:55.073Z,100547.34
2023-02-24T08:43:29.598Z,100547.13
2023-02-24T08:46:18.634Z,100550.13
2023-02-24T08:48:49.767Z,100551.50
2023-02-24T08:51:29.099Z,100543.09
2023-02-24T08:53:59.297Z,100534.88
2023-02-24T08:56:34.895Z,100530.31
2023-02-24T08:59:06.023Z,100534.09
2023-02-24T09:01:37.148Z,100523.72
2023-02-24T09:04:19.257Z,100522.94
2023-02-24T09:06:47.885Z,100526.97
2023-02-24T09:09:23.769Z,100525.84
2023-02-24T09:11:56.571Z,100535.88
2023-02-24T09:14:29.613Z,100522.72
2023-02-24T09:17:11.712Z,100521.47
2023-02-24T09:19:47.730Z,100525.25
2023-02-24T09:22:31.463Z,100517.00
2023-02-24T09:25:18.330Z,100509.09
2023-02-24T09:28:09.221Z,100507.28
2023-02-24T09:30:52.672Z,100516.41
2023-02-24T09:33:38.844Z,100508.09
2023-02-24T09:36:13.027Z,100503.59
2023-02-24T09:39:01.722Z,100510.53
2023-02-24T09:42:02.517Z,100505.59
2023-02-24T09:44:55.750Z,100507.25
2023-02-24T09:47:40.134Z,100502.97
2023-02-24T09:50:55.146Z,100503.34
2023-02-24T09:53:17.823Z,100501.56
2023-02-24T09:56:04.771Z,100507.72
2023-02-24T09:59:10.503Z,100515.25
2023-02-24T10:01:55.292Z,100508.53
2023-02-24T10:04:36.164Z,100521.88
2023-02-24T10:07:11.418Z,100501.31
2023-02-24T10:10:18.643Z,100507.13
2023-02-24T10:13:17.208Z,100500.22
2023-02-24T10:15:59.503Z,100509.06
2023-02-24T10:18:33.622Z,100500.41
2023-02-24T10:21:09.544Z,100504.66
2023-02-24T10:23:47.183Z,100510.50
2023-02-24T10:26:32.226Z,100504.50
2023-02-24T10:29:08.976Z,100501.41
2023-02-24T10:31:48.218Z,100492.53
2023-02-24T10:34:26.439Z,100487.84
2023-02-24T10:36:57.040Z,100488.50
2023-02-24T10:39:25.912Z,100485.69
2023-02-24T10:42:15.859Z,100486.66
2023-02-24T10:45:02.213Z,100471.97
2023-02-24T10:47:31.546Z,100498.13
2023-02-24T10:50:03.968Z,100475.78
2023-02-24T10:52:59.386Z,100470.72
2023-02-24T10:55:43.790Z,100464.78
2023-02-24T10:58:28.969Z,100474.34
2023-02-24T11:01:07.370Z,100467.53
2023-02-24T11:03:42.337Z,100465.16
2023-02-24T11:06:41.192Z,100467.25
2023-02-24T11:09:32.088Z,100471.09
2023-02-24T11:12:43.690Z,100464.00
2023-02-24T11:15:38.409Z,100457.78
2023-02-24T11:18:07.055Z,100459.19
2023-02-24T11:20:49.300Z,100451.94
2023-02-24T11:23:22.259Z,100452.81
2023-02-24T11:25:53.589Z,100444.66
2023-02-24T11:28:40.071Z,100438.91
2023-02-24T11:31:23.564Z,100438.81
2023-02-24T11:34:09.515Z,100429.84
2023-02-24T11:37:16.684Z,100433.78
2023-02-24T11:39:59.385Z,100460.25
2023-02-24T11:42:37.165Z,100437.44
2023-02-24T11:45:30.632Z,100440.47
2023-02-24T11:48:15.226Z,100439.50
2023-02-24T11:50:47.427Z,100429.91
2023-02-24T11:53:47.023Z,100440.38
2023-02-24T11:56:21.706Z,100430.31
2023-02-24T11:58:52.865Z,100429.66
2023-02-24T12:01:42.232Z,100424.84
2023-02-24T12:04:54.581Z,100420.91
2023-02-24T12:07:44.348Z,100420.16
2023-02-24T12:10:28.334Z,100414.16
2023-02-24T12:13:07.696Z,100413.28
2023-02-24T12:15:56.308Z,100406.06
2023-02-24T12:18:34.124Z,100407.03
2023-02-24T12:21:07.699Z,100399.34
2023-02-24T12:23:35.926Z,100406.63
2023-02-24T12:26:24.696Z,100396.84
2023-02-24T12:29:21.714Z,100391.66
2023-02-24T12:31:53.531Z,100390.69
2023-02-24T12:34:46.256Z,100387.41
2023-02-24T12:37:21.891Z,100389.16
2023-02-24T12:39:58.500Z,100394.31
2023-02-24T12:42:43.403Z,100395.41
2023-02-24T12:45:32.756Z,100406.25
2023-02-24T12:48:19.312Z,100397.16
2023-02-24T12:51:10.354Z,100393.31
2023-02-24T12:53:41.501Z,100396.03
2023-02-24T12:56:25.227Z,100396.38
2023-02-24T12:58:59.942Z,100397.25
2023-02-24T13:01:41.537Z,100375.72
2023-02-24T13:04:34.064Z,100383.38
2023-02-24T13:07:10.175Z,100381.03
2023-02-24T13:10:05.120Z,100391.31
2023-02-24T13:12:55.059Z,100391.63
2023-02-24T13:15:27.598Z,100384.19
2023-02-24T13:17:57.984Z,100387.84
2023-02-24T13:20:28.259Z,100388.88
2023-02-24T13:22:56.429Z,100387.63
2023-02-24T13:25:30.639Z,100374.78
2023-02-24T13:28:02.433Z,100368.13
2023-02-24T13:30:37.127Z,100379.81
2023-02-24T13:33:06.294Z,100361.47
2023-02-24T13:35:36.109Z,100355.03
2023-02-24T13:38:29.438Z,100346.88
2023-02-24T13:41:25.089Z,100346.75
2023-02-24T13:44:23.371Z,100339.56
2023-02-24T13:47:09.004Z,100347.28
2023-02-24T13:49:55.190Z,100341.72
2023-02-24T13:52:41.297Z,100344.25
2023-02-24T13:55:12.231Z,100343.06
2023-02-24T13:57:57.094Z,100370.19
2023-02-24T14:00:55.917Z,100391.13
2023-02-24T14:03:26.885Z,100358.84
2023-02-24T14:05:54.506Z,100351.47
2023-02-24T14:08:41.518Z,100370.06
2023-02-24T14:11:13.201Z,100363.22
2023-02-24T14:13:40.824Z,100358.41
2023-02-24T14:16:11.850Z,100349.94
2023-02-24T14:18:40.920Z,100349.28
2023-02-24T14:21:22.414Z,100341.88
2023-02-24T14:24:02.550Z,100340.03
2023-02-24T14:26:36.611Z,100339.13
2023-02-24T14:29:07.193Z,100343.66
2023-02-24T14:31:34.410Z,100348.31
2023-02-24T14:34:08.683Z,100336.53
2023-02-24T14:36:43.855Z,100347.00
2023-02-24T14:39:25.581Z,100361.69
2023-02-24T14:42:14.398Z,100350.28
2023-02-24T14:44:59.470Z,100354.97
2023-02-24T14:47:28.930Z,100345.16
2023-02-24T14:50:04.310Z,100345.38
2023-02-24T14:52:39.848Z,100349.13
2023-02-24T14:55:26.091Z,100354.75
2023-02-24T14:58:03.783Z,100351.66
2023-02-24T15:00:35.400Z,100344.38
2023-02-24T15:03:02.604Z,100334.22
2023-02-24T15:05:29.714Z,100338.78
2023-02-24T15:07:58.635Z,100336.25
2023-02-24T15:10:28.905Z,100350.16
2023-02-24T15:13:02.124Z,100348.09
2023-02-24T15:15:35.014Z,100367.84
2023-02-24T15:18:12.692Z,100347.19
2023-02-24T15:20:41.306Z,100361.31
2023-02-24T15:23:28.086Z,100361.91
2023-02-24T15:25:55.278Z,100354.72
2023-02-24T15:28:36.145Z,100368.75
2023-02-24T15:31:17.926Z,100363.06
2023-02-24T15:33:54.616Z,100358.03
2023-02-24T15:36:25.653Z,100361.31
2023-02-24T15:39:00.814Z,100354.03
2023-02-24T15:41:45.582Z,100365.09
2023-02-24T15:44:26.855Z,100356.97
2023-02-24T15:46:55.191Z,100367.38
2023-02-24T15:49:22.052Z,100363.16
2023-02-24T15:51:52.909Z,100367.63
2023-02-24T15:54:36.224Z,100371.06
2023-02-24T15:57:05.546Z,100374.13
2023-02-24T15:59:32.647Z,100369.81
2023-02-24T16:01:59.629Z,100364.09
2023-02-24T16:04:27.665Z,100367.50
2023-02-24T16:06:57.144Z,100363.19
2023-02-24T16:09:36.790Z,100389.41
2023-02-24T16:12:16.575Z,100389.31
2023-02-24T16:14:45.259Z,100403.22
2023-02-24T16:17:38.974Z,100396.88
2023-02-24T16:20:13.941Z,100379.19
2023-02-24T16:22:42.496Z,100385.81
2023-02-24T16:25:14.382Z,100380.50
2023-02-24T16:27:41.747Z,100372.63
2023-02-24T16:30:16.647Z,100376.13
2023-02-24T16:32:46.757Z,100370.16
2023-02-24T16:35:14.068Z,100378.53
2023-02-24T16:37:40.982Z,100372.25
2023-02-24T16:40:20.486Z,100376.38
2023-02-24T16:42:49.280Z,100378.41
2023-02-24T16:45:18.568Z,100385.25
2023-02-24T16:47:48.164Z,100386.13
2023-02-24T16:50:22.885Z,100400.69
2023-02-24T16:52:50.341Z,100397.72
2023-02-24T16:55:17.916Z,100406.97
2023-02-24T16:57:44.793Z,100405.41
2023-02-24T17:00:14.523Z,100402.44
2023-02-24T17:02:44.126Z,100397.00
2023-02-24T17:05:20.599Z,100393.16
2023-02-24T17:07:53.822Z,100399.69
2023-02-24T17:10:22.478Z,100397.38
2023-02-24T17:12:49.525Z,100403.94
2023-02-24T17:15:20.677Z,100408.66
2023-02-24T17:17:47.887Z,100413.41
2023-02-24T17:20:18.395Z,100414.00
2023-02-24T17:22:46.546Z,100398.84
2023-02-24T17:25:26.172Z,100422.56
2023-02-24T17:27:54.647Z,100416.34
2023-02-24T17:30:28.350Z,100424.59
2023-02-24T17:32:56.036Z,100415.66
2023-02-24T17:35:24.991Z,100416.34
2023-02-24T17:37:52.719Z,100410.66
2023-02-24T17:40:20.229Z,100414.88
2023-02-24T17:42:47.546Z,100428.53
2023-02-24T17:45:15.109Z,100423.31
2023-02-24T17:47:45.282Z,100417.66
2023-02-24T17:50:14.129Z,100435.09
2023-02-24T17:52:41.610Z,100442.09
2023-02-24T17:55:09.420Z,100442.56
2023-02-24T17:57:37.071Z,100447.22
2023-02-24T18:00:05.577Z,100438.41
2023-02-24T18:02:39.350Z,100442.81
2023-02-24T18:05:06.952Z,100442.06
2023-02-24T18:07:33.929Z,100441.31
2023-02-24T18:10:02.623Z,100434.38
2023-02-24T18:12:29.710Z,100424.94
2023-02-24T18:15:07.799Z,100425.59
2023-02-24T18:17:36.189Z,100430.25
2023-02-24T18:20:04.057Z,100421.25
2023-02-24T18:22:30.953Z,100417.84
2023-02-24T18:24:59.341Z,100424.28
2023-02-24T18:27:26.557Z,100432.41
2023-02-24T18:29:54.385Z,100415.38
2023-02-24T18:32:21.629Z,100426.59
2023-02-24T18:34:48.995Z,100429.75
2023-02-24T18:37:15.891Z,100431.13
2023-02-24T18:39:42.896Z,100421.53
2023-02-24T18:42:10.207Z,100469.97
2023-02-24T18:44:37.133Z,100471.28
2023-02-24T18:47:09.534Z,100462.22
2023-02-24T18:49:37.375Z,100443.03
2023-02-24T18:52:05.435Z,100460.53
2023-02-24T18:54:33.873Z,100482.16
2023-02-24T18:57:01.140Z,100483.25
2023-02-24T18:59:28.146Z,100477.63
2023-02-24T19:01:57.048Z,100452.63
2023-02-24T19:04:24.855Z,100449.75
2023-02-24T19:06:51.944Z,100448.66
2023-02-24T19:09:22.850Z,100453.31
2023-02-24T19:11:50.367Z,100458.44
2023-02-24T19:14:17.836Z,100454.59
2023-02-24T19:16:47.756Z,100451.53
2023-02-24T19:19:16.462Z,100460.69
2023-02-24T19:21:48.446Z,100452.69
2023-02-24T19:24:16.713Z,100443.53
2023-02-24T19:26:45.915Z,100443.22
2023-02-24T19:29:15.190Z,100458.44
2023-02-24T19:31:43.815Z,100454.91
2023-02-24T19:34:12.950Z,100475.41
2023-02-24T19:36:41.255Z,100463.38
2023-02-24T19:39:14.363Z,100463.84
2023-02-24T19:41:42.349Z,100457.56
2023-02-24T19:44:10.474Z,100455.66
2023-02-24T19:46:37.846Z,100460.00
2023-02-24T19:49:05.141Z,100463.66
2023-02-24T19:51:32.718Z,100452.75
2023-02-24T19:54:03.221Z,100462.84
2023-02-24T19:56:32.691Z,100464.94
2023-02-24T19:59:01.371Z,100471.16
2023-02-24T20:01:30.082Z,100466.84
2023-02-24T20:04:00.439Z,100471.66
2023-02-24T20:06:31.468Z,100477.91
2023-02-24T20:09:00.517Z,100475.50
2023-02-24T20:11:33.064Z,100475.47
2023-02-24T20:13:59.942Z,100474.94
2023-02-24T20:16:32.016Z,100478.56
2023-02-24T20:19:00.152Z,100470.28
2023-02-24T20:21:28.178Z,100470.59
2023-02-24T20:24:00.641Z,100483.59
2023-02-24T20:26:28.846Z,100476.59
2023-02-24T20:28:56.946Z,100483.34
2023-02-24T20:31:24.440Z,100496.69
2023-02-24T20:33:52.340Z,100488.28
2023-02-24T20:36:22.793Z,100486.50
2023-02-24T20:38:50.732Z,100493.88
2023-02-24T20:41:19.210Z,100488.09
2023-02-24T20:43:46.139Z,100482.44
2023-02-24T20:46:24.418Z,100496.41
2023-02-24T20:48:53.235Z,100490.94
2023-02-24T20:51:20.450Z,100500.63
2023-02-24T20:53:57.358Z,100502.53
2023-02-24T20:56:26.654Z,100510.63
2023-02-24T20:59:01.954Z,100510.19
2023-02-24T21:01:30.755Z,100510.28
2023-02-24T21:03:59.965Z,100508.56
2023-02-24T21:06:29.140Z,100506.84
2023-02-24T21:08:56.924Z,100500.25
2023-02-24T21:11:24.451Z,100508.59
2023-02-24T21:13:52.487Z,100498.66
2023-02-24T21:16:22.422Z,100512.41
2023-02-24T21:18:53.186Z,100496.56
2023-02-24T21:21:21.354Z,100496.56
2023-02-24T21:23:51.209Z,100497.53
2023-02-24T21:26:19.924Z,100504.00
2023-02-24T21:28:46.989Z,100488.38
2023-02-24T21:31:17.247Z,100480.97
2023-02-24T21:33:44.808Z,100489.97
2023-02-24T21:36:14.517Z,100499.47
2023-02-24T21:38:41.972Z,100511.84
2023-02-24T21:41:14.729Z,100509.28
2023-02-24T21:43:44.421Z,100508.06
2023-02-24T21:46:13.331Z,100495.56
2023-02-24T21:48:40.824Z,100503.41
2023-02-24T21:51:10.589Z,100493.59
2023-02-24T21:53:39.407Z,100486.50
2023-02-24T21:56:16.764Z,100495.66
2023-02-24T21:58:53.631Z,100491.16
2023-02-24T22:01:24.117Z,100490.31
2023-02-24T22:03:57.314Z,100491.22
2023-02-24T22:06:26.295Z,100501.38
2023-02-24T22:08:55.118Z,100488.88
2023-02-24T22:11:22.091Z,100505.53
2023-02-24T22:13:49.824Z,100507.81
2023-02-24T22:16:20.160Z,100510.72
2023-02-24T22:18:49.077Z,100508.00
2023-02-24T22:21:19.293Z,100525.28
2023-02-24T22:23:48.186Z,100517.09
2023-02-24T22:26:16.920Z,100504.59
2023-02-24T22:28:46.766Z,100503.34
2023-02-24T22:31:18.005Z,100519.09
2023-02-24T22:33:46.459Z,100526.78
2023-02-24T22:36:19.283Z,100520.88
2023-02-24T22:38:46.902Z,100514.09
2023-02-24T22:41:22.459Z,100518.72
2023-02-24T22:43:49.809Z,100520.16
2023-02-24T22:46:21.346Z,100507.63
2023-02-24T22:48:50.530Z,100523.22
2023-02-24T22:51:19.135Z,100531.38
2023-02-24T22:53:48.980Z,100540.97
2023-02-24T22:56:19.574Z,100543.22
2023-02-24T22:58:46.676Z,100548.41
2023-02-24T23:01:27.626Z,100554.88
2023-02-24T23:03:56.260Z,100549.91
2023-02-24T23:06:26.237Z,100550.69
2023-02-24T23:08:54.283Z,100559.69
2023-02-24T23:11:27.863Z,100560.69
2023-02-24T23:13:56.348Z,100549.47
2023-02-24T23:16:27.431Z,100544.50
2023-02-24T23:18:56.280Z,100547.72
2023-02-24T23:21:33.992Z,100550.94
2023-02-24T23:24:01.119Z,100555.22
2023-02-24T23:26:29.589Z,100561.47
2023-02-24T23:28:57.558Z,100555.97
2023-02-24T23:31:24.556Z,100552.09
2023-02-24T23:33:55.603Z,100557.41
2023-02-24T23:36:23.641Z,100562.75
2023-02-24T23:38:51.844Z,100567.25
2023-02-24T23:41:18.914Z,100560.03
2023-02-24T23:43:46.102Z,100556.81
2023-02-24T23:46:13.709Z,100567.44
2023-02-24T23:48:40.874Z,100561.34
2023-02-24T23:51:14.025Z,100560.34
2023-02-24T23:53:43.547Z,100561.16
2023-02-24T23:56:18.992Z,100569.81
2023-02-24T23:58:50.545Z,100580.72
